MET'MAP v2.0
soon released !

Expected late october,
this new version will be
more efficient, smarter,
and hosted on a brand new
server x3 powerfull...
...and still free !


Not compatible ?
Try the mobile version !

LOG IN : | Subscribe | Disclaimer | Who is Orbifly ? |
ICAO code :
Legend : VFR Marginal VFR IFR Intensive IFR Very Intensive IFR
Visi :
Ceiling :
>= 8 km
>= 3000ft
5 to 8 km
1000 to 3000 ft
1500m to 5 km
500 to 1000 ft
800 to 1500m
200 to 500 ft
< 800m
< 200 ft

METAR - GMMX Menara Int. - 01 Jun 2020 21:30 UTC - Data Source NOAA   


- Airport Elevation : 1545 ft
- IATA code : RAK
- No reported NOTAMs.


GMMX - Menara Int.

Latest METAR recorded : 2015/08/11 08:00 GMMX 110800Z 25004KT 230V290 9999 FEW033 SCT120 29/19 Q1016 NOSIG
TAF TAF GMMX
Valid from the 01 at 18:00 until the 03 at 00:00 UTC


011700Z 0118/0224 26006KT 8000 NSC
TEMPO 0118/0121 32016KT

Source NOAA


MET'MAP, your aeronautical weather chart ! - Copyright ORBIFLY December 2007

Programming & Development : Alexandra Zaïnal
Co-Developer : Marc-Olivier Méhu
Technical & hardware support : Manuel Goepfert
Concept & Financing : Baudouin d'Aumeries